Terminal Aerodrome Forecast
Issued by NWS Louisville, KY

Home | Current Version | Previous Version | Text Only | Print | Product List | Glossary On
Versions: 1 2 3 4 5 6 7 8 9 10 11 12
000
FTUS43 KLMK 181700
TAFBWG
TAF
KBWG 181720Z 1818/1918 25009G18KT P6SM SCT030
     FM190000 22003KT P6SM SKC
     FM191300 22015G25KT P6SM BKN150=

USA.gov is the U.S. government's official web portal to all federal, state and local government web resources and services.